createdAt,value
2023-05-06T00:02:09.030Z,100.00
2023-05-06T00:04:35.535Z,100.00
2023-05-06T00:07:02.328Z,100.00
2023-05-06T00:09:28.793Z,100.00
2023-05-06T00:11:55.286Z,100.00
2023-05-06T00:14:21.788Z,100.00
2023-05-06T00:16:48.341Z,100.00
2023-05-06T00:19:14.824Z,100.00
2023-05-06T00:21:41.250Z,100.00
2023-05-06T00:24:07.791Z,100.00
2023-05-06T00:26:34.264Z,100.00
2023-05-06T00:29:01.147Z,100.00
2023-05-06T00:31:27.627Z,100.00
2023-05-06T00:33:54.122Z,100.00
2023-05-06T00:36:21.015Z,100.00
2023-05-06T00:38:47.517Z,100.00
2023-05-06T00:41:13.974Z,100.00
2023-05-06T00:43:40.964Z,100.00
2023-05-06T00:46:10.048Z,100.00
2023-05-06T00:48:37.296Z,100.00
2023-05-06T00:51:04.431Z,100.00
2023-05-06T00:53:30.952Z,100.00
2023-05-06T00:55:57.584Z,100.00
2023-05-06T00:58:24.118Z,100.00
2023-05-06T01:00:52.255Z,100.00
2023-05-06T01:03:19.048Z,100.00
2023-05-06T01:05:58.586Z,100.00
2023-05-06T01:08:37.371Z,100.00
2023-05-06T01:11:09.999Z,100.00
2023-05-06T01:14:01.417Z,100.00
2023-05-06T01:16:30.971Z,100.00
2023-05-06T01:19:00.261Z,100.00
2023-05-06T01:21:34.646Z,100.00
2023-05-06T01:24:01.843Z,100.00
2023-05-06T01:26:28.316Z,100.00
2023-05-06T01:28:55.185Z,100.00
2023-05-06T01:31:32.122Z,100.00
2023-05-06T01:34:12.361Z,100.00
2023-05-06T01:37:01.408Z,100.00
2023-05-06T01:39:30.881Z,100.00
2023-05-06T01:42:00.343Z,100.00
2023-05-06T01:44:29.259Z,100.00
2023-05-06T01:46:56.333Z,100.00
2023-05-06T01:49:25.986Z,100.00
2023-05-06T01:51:53.591Z,100.00
2023-05-06T01:54:20.102Z,100.00
2023-05-06T01:56:46.679Z,100.00
2023-05-06T01:59:14.644Z,100.00
2023-05-06T02:01:41.151Z,100.00
2023-05-06T02:04:07.826Z,100.00
2023-05-06T02:06:34.330Z,100.00
2023-05-06T02:09:01.137Z,100.00
2023-05-06T02:11:31.090Z,100.00
2023-05-06T02:14:02.731Z,100.00
2023-05-06T02:16:31.906Z,100.00
2023-05-06T02:18:58.630Z,100.00
2023-05-06T02:21:25.132Z,100.00
2023-05-06T02:23:51.615Z,100.00
2023-05-06T02:26:18.107Z,100.00
2023-05-06T02:28:44.608Z,100.00
2023-05-06T02:31:16.118Z,100.00
2023-05-06T02:33:43.428Z,100.00
2023-05-06T02:36:11.206Z,100.00
2023-05-06T02:38:37.703Z,100.00
2023-05-06T02:41:04.183Z,100.00
2023-05-06T02:43:30.638Z,100.00
2023-05-06T02:45:58.161Z,100.00
2023-05-06T02:48:25.599Z,100.00
2023-05-06T02:50:52.296Z,100.00
2023-05-06T02:53:18.850Z,100.00
2023-05-06T02:55:45.676Z,100.00
2023-05-06T02:58:12.184Z,100.00
2023-05-06T03:00:38.608Z,100.00
2023-05-06T03:03:05.178Z,100.00
2023-05-06T03:05:31.700Z,100.00
2023-05-06T03:07:58.219Z,100.00
2023-05-06T03:10:24.848Z,100.00
2023-05-06T03:12:51.712Z,100.00
2023-05-06T03:15:18.684Z,100.00
2023-05-06T03:17:46.963Z,100.00
2023-05-06T03:20:13.808Z,100.00
2023-05-06T03:22:47.204Z,100.00
2023-05-06T03:25:15.192Z,100.00
2023-05-06T03:27:42.327Z,100.00
2023-05-06T03:30:16.604Z,100.00
2023-05-06T03:32:44.749Z,100.00
2023-05-06T03:35:15.694Z,100.00
2023-05-06T03:37:45.139Z,100.00
2023-05-06T03:40:12.142Z,100.00
2023-05-06T03:42:38.586Z,100.00
2023-05-06T03:45:07.036Z,100.00
2023-05-06T03:47:34.005Z,100.00
2023-05-06T03:50:02.835Z,100.00
2023-05-06T03:52:31.787Z,100.00
2023-05-06T03:54:59.471Z,100.00
2023-05-06T03:57:27.583Z,100.00
2023-05-06T03:59:54.233Z,100.00
2023-05-06T04:02:20.716Z,100.00
2023-05-06T04:04:47.261Z,100.00
2023-05-06T04:07:13.908Z,100.00
2023-05-06T04:09:40.444Z,100.00
2023-05-06T04:12:08.347Z,100.00
2023-05-06T04:14:35.754Z,100.00
2023-05-06T04:17:02.628Z,100.00
2023-05-06T04:19:29.211Z,100.00
2023-05-06T04:21:55.784Z,100.00
2023-05-06T04:24:22.913Z,100.00
2023-05-06T04:26:49.426Z,100.00
2023-05-06T04:29:16.358Z,100.00
2023-05-06T04:31:55.861Z,100.00
2023-05-06T04:34:25.116Z,100.00
2023-05-06T04:36:54.131Z,100.00
2023-05-06T04:39:28.584Z,100.00
2023-05-06T04:41:56.367Z,100.00
2023-05-06T04:44:31.010Z,100.00
2023-05-06T04:46:57.732Z,100.00
2023-05-06T04:49:25.391Z,100.00
2023-05-06T04:51:52.387Z,100.00
2023-05-06T04:54:18.926Z,100.00
2023-05-06T04:56:45.807Z,100.00
2023-05-06T04:59:14.204Z,100.00
2023-05-06T05:01:42.442Z,100.00
2023-05-06T05:04:09.852Z,100.00
2023-05-06T05:06:36.301Z,100.00
2023-05-06T05:09:02.868Z,100.00
2023-05-06T05:11:29.735Z,100.00
2023-05-06T05:14:01.007Z,100.00
2023-05-06T05:16:29.956Z,100.00
2023-05-06T05:18:56.793Z,100.00
2023-05-06T05:21:27.705Z,100.00
2023-05-06T05:23:55.254Z,100.00
2023-05-06T05:26:21.929Z,100.00
2023-05-06T05:28:51.314Z,100.00
2023-05-06T05:31:17.833Z,100.00
2023-05-06T05:33:44.638Z,100.00
2023-05-06T05:36:16.096Z,100.00
2023-05-06T05:38:44.646Z,100.00
2023-05-06T05:41:11.706Z,100.00
2023-05-06T05:43:38.366Z,100.00
2023-05-06T05:46:04.942Z,100.00
2023-05-06T05:48:32.890Z,100.00
2023-05-06T05:51:04.301Z,100.00
2023-05-06T05:53:31.288Z,100.00
2023-05-06T05:55:58.366Z,100.00
2023-05-06T05:58:25.559Z,100.00
2023-05-06T06:00:54.999Z,100.00
2023-05-06T06:03:21.654Z,100.00
2023-05-06T06:05:49.345Z,100.00
2023-05-06T06:08:19.585Z,100.00
2023-05-06T06:10:47.876Z,100.00
2023-05-06T06:13:19.475Z,100.00
2023-05-06T06:15:46.473Z,100.00
2023-05-06T06:18:13.070Z,100.00
2023-05-06T06:20:39.623Z,100.00
2023-05-06T06:23:06.614Z,100.00
2023-05-06T06:25:33.150Z,100.00
2023-05-06T06:28:00.009Z,100.00
2023-05-06T06:30:26.780Z,100.00
2023-05-06T06:32:54.132Z,100.00
2023-05-06T06:35:20.730Z,100.00
2023-05-06T06:37:47.380Z,100.00
2023-05-06T06:40:14.253Z,100.00
2023-05-06T06:42:40.834Z,100.00
2023-05-06T06:45:39.820Z,100.00
2023-05-06T06:48:06.354Z,100.00
2023-05-06T06:50:32.847Z,100.00
2023-05-06T06:52:59.295Z,100.00
2023-05-06T06:55:25.893Z,100.00
2023-05-06T06:57:52.371Z,100.00
2023-05-06T07:00:19.112Z,100.00
2023-05-06T07:02:48.036Z,100.00
2023-05-06T07:05:14.784Z,100.00
2023-05-06T07:07:41.228Z,100.00
2023-05-06T07:10:08.407Z,100.00
2023-05-06T07:12:34.929Z,100.00
2023-05-06T07:15:01.538Z,100.00
2023-05-06T07:17:27.985Z,100.00
2023-05-06T07:19:54.479Z,100.00
2023-05-06T07:22:20.959Z,100.00
2023-05-06T07:24:47.410Z,100.00
2023-05-06T07:27:13.856Z,100.00
2023-05-06T07:29:40.304Z,100.00
2023-05-06T07:32:06.787Z,100.00
2023-05-06T07:34:34.430Z,100.00
2023-05-06T07:37:01.420Z,100.00
2023-05-06T07:39:27.884Z,100.00
2023-05-06T07:41:54.417Z,100.00
2023-05-06T07:44:21.176Z,100.00
2023-05-06T07:46:48.362Z,100.00
2023-05-06T07:49:14.851Z,100.00
2023-05-06T07:51:44.626Z,100.00
2023-05-06T07:54:11.353Z,100.00
2023-05-06T07:56:37.792Z,100.00
2023-05-06T07:59:04.294Z,100.00
2023-05-06T08:01:31.187Z,100.00
2023-05-06T08:03:57.921Z,100.00
2023-05-06T08:06:24.531Z,99.61
2023-05-06T08:08:50.990Z,97.30
2023-05-06T08:11:19.247Z,93.62
2023-05-06T08:13:47.056Z,88.39
2023-05-06T08:16:13.573Z,86.44
2023-05-06T08:18:40.212Z,83.87
2023-05-06T08:21:06.695Z,81.22
2023-05-06T08:23:33.262Z,79.98
2023-05-06T08:25:59.762Z,82.62
2023-05-06T08:28:26.428Z,80.55
2023-05-06T08:30:52.973Z,79.04
2023-05-06T08:33:19.656Z,80.22
2023-05-06T08:35:46.832Z,79.38
2023-05-06T08:38:13.318Z,76.10
2023-05-06T08:40:43.774Z,77.87
2023-05-06T08:43:14.690Z,77.93
2023-05-06T08:45:42.297Z,77.13
2023-05-06T08:48:09.376Z,73.40
2023-05-06T08:50:41.035Z,74.90
2023-05-06T08:53:09.550Z,72.94
2023-05-06T08:55:36.828Z,71.78
2023-05-06T08:58:05.498Z,71.62
2023-05-06T09:00:33.214Z,71.45
2023-05-06T09:02:59.859Z,71.05
2023-05-06T09:05:26.335Z,71.20
2023-05-06T09:07:52.815Z,71.32
2023-05-06T09:10:19.417Z,69.58
2023-05-06T09:12:45.971Z,68.77
2023-05-06T09:15:12.777Z,65.38
2023-05-06T09:17:39.551Z,63.62
2023-05-06T09:20:09.163Z,63.41
2023-05-06T09:22:38.464Z,63.96
2023-05-06T09:25:05.726Z,62.12
2023-05-06T09:27:34.691Z,60.36
2023-05-06T09:30:09.322Z,61.11
2023-05-06T09:32:38.346Z,62.09
2023-05-06T09:35:07.023Z,57.08
2023-05-06T09:37:33.755Z,58.26
2023-05-06T09:40:01.009Z,59.12
2023-05-06T09:42:29.429Z,59.01
2023-05-06T09:45:01.100Z,59.54
2023-05-06T09:47:35.156Z,60.82
2023-05-06T09:50:03.234Z,58.79
2023-05-06T09:52:31.082Z,60.76
2023-05-06T09:54:58.496Z,59.51
2023-05-06T09:57:26.182Z,59.42
2023-05-06T09:59:55.489Z,57.71
2023-05-06T10:02:23.767Z,56.21
2023-05-06T10:04:51.179Z,57.83
2023-05-06T10:07:22.729Z,57.94
2023-05-06T10:09:51.080Z,57.14
2023-05-06T10:12:18.972Z,53.62
2023-05-06T10:14:45.658Z,53.92
2023-05-06T10:17:13.761Z,49.66
2023-05-06T10:19:43.910Z,48.50
2023-05-06T10:22:26.449Z,51.71
2023-05-06T10:24:59.691Z,53.24
2023-05-06T10:27:28.442Z,47.65
2023-05-06T10:29:59.391Z,48.09
2023-05-06T10:32:31.235Z,47.30
2023-05-06T10:35:09.449Z,49.80
2023-05-06T10:37:38.404Z,49.90
2023-05-06T10:40:05.617Z,50.97
2023-05-06T10:42:38.012Z,50.12
2023-05-06T10:45:05.934Z,50.75
2023-05-06T10:47:56.840Z,49.83
2023-05-06T10:50:24.210Z,51.65
2023-05-06T10:52:56.117Z,50.90
2023-05-06T10:55:33.929Z,54.05
2023-05-06T10:58:14.831Z,49.26
2023-05-06T11:00:41.873Z,51.32
2023-05-06T11:03:18.654Z,46.06
2023-05-06T11:05:52.114Z,49.13
2023-05-06T11:08:23.549Z,46.35
2023-05-06T11:10:50.145Z,47.34
2023-05-06T11:13:28.289Z,48.24
2023-05-06T11:15:56.138Z,49.95
2023-05-06T11:18:29.106Z,50.09
2023-05-06T11:21:02.317Z,47.00
2023-05-06T11:23:49.377Z,48.31
2023-05-06T11:26:16.352Z,47.30
2023-05-06T11:28:44.741Z,47.07
2023-05-06T11:31:13.003Z,45.09
2023-05-06T11:33:46.416Z,42.08
2023-05-06T11:36:17.674Z,43.24
2023-05-06T11:38:56.238Z,43.94
2023-05-06T11:41:23.334Z,43.04
2023-05-06T11:43:52.045Z,43.76
2023-05-06T11:46:19.965Z,42.91
2023-05-06T11:48:46.680Z,42.39
2023-05-06T11:51:13.350Z,40.15
2023-05-06T11:53:39.828Z,42.34
2023-05-06T11:56:06.960Z,44.70
2023-05-06T11:58:33.615Z,47.47
2023-05-06T12:01:01.828Z,46.22
2023-05-06T12:03:30.228Z,45.87
2023-05-06T12:05:57.540Z,49.22
2023-05-06T12:08:32.446Z,47.21
2023-05-06T12:11:07.993Z,43.00
2023-05-06T12:13:36.667Z,39.70
2023-05-06T12:16:05.643Z,43.88
2023-05-06T12:18:32.341Z,44.97
2023-05-06T12:21:02.519Z,47.80
2023-05-06T12:23:29.037Z,48.37
2023-05-06T12:26:06.235Z,52.29
2023-05-06T12:28:36.215Z,53.27
2023-05-06T12:31:22.631Z,51.22
2023-05-06T12:33:50.259Z,50.06
2023-05-06T12:36:17.949Z,50.75
2023-05-06T12:38:52.588Z,52.53
2023-05-06T12:41:20.692Z,50.42
2023-05-06T12:43:47.667Z,50.97
2023-05-06T12:46:16.481Z,47.44
2023-05-06T12:49:02.316Z,43.82
2023-05-06T12:51:30.693Z,41.07
2023-05-06T12:53:57.216Z,41.74
2023-05-06T12:56:24.004Z,40.96
2023-05-06T12:59:00.866Z,40.81
2023-05-06T13:01:27.425Z,41.84
2023-05-06T13:03:57.026Z,44.03
2023-05-06T13:06:23.676Z,44.75
2023-05-06T13:08:50.138Z,42.68
2023-05-06T13:11:16.573Z,37.56
2023-05-06T13:13:43.482Z,40.60
2023-05-06T13:16:10.025Z,42.43
2023-05-06T13:18:36.521Z,39.28
2023-05-06T13:21:03.860Z,40.35
2023-05-06T13:23:31.351Z,45.46
2023-05-06T13:26:04.698Z,44.24
2023-05-06T13:28:33.541Z,42.35
2023-05-06T13:31:00.028Z,45.34
2023-05-06T13:33:26.596Z,41.21
2023-05-06T13:35:53.089Z,46.42
2023-05-06T13:38:19.532Z,46.61
2023-05-06T13:40:48.108Z,45.91
2023-05-06T13:43:15.837Z,49.01
2023-05-06T13:45:43.723Z,45.67
2023-05-06T13:48:10.726Z,47.86
2023-05-06T13:50:37.359Z,52.13
2023-05-06T13:53:04.491Z,52.53
2023-05-06T13:55:31.250Z,48.98
2023-05-06T13:57:57.709Z,46.89
2023-05-06T14:00:24.321Z,46.13
2023-05-06T14:02:50.782Z,46.55
2023-05-06T14:05:17.446Z,50.38
2023-05-06T14:07:43.967Z,51.69
2023-05-06T14:10:10.792Z,51.87
2023-05-06T14:12:37.534Z,54.68
2023-05-06T14:15:07.041Z,54.88
2023-05-06T14:17:33.548Z,54.56
2023-05-06T14:20:00.073Z,51.89
2023-05-06T14:22:28.596Z,50.29
2023-05-06T14:24:55.481Z,47.78
2023-05-06T14:27:22.070Z,43.08
2023-05-06T14:29:48.579Z,47.34
2023-05-06T14:32:15.144Z,49.96
2023-05-06T14:34:41.592Z,44.96
2023-05-06T14:37:08.031Z,49.69
2023-05-06T14:39:34.464Z,47.38
2023-05-06T14:42:01.145Z,48.43
2023-05-06T14:44:27.634Z,49.14
2023-05-06T14:46:54.098Z,50.13
2023-05-06T14:49:21.176Z,50.62
2023-05-06T14:51:49.896Z,49.17
2023-05-06T14:54:17.369Z,45.42
2023-05-06T14:56:49.180Z,45.58
2023-05-06T14:59:18.068Z,47.59
2023-05-06T15:01:44.558Z,48.60
2023-05-06T15:04:11.176Z,45.84
2023-05-06T15:06:37.961Z,46.07
2023-05-06T15:09:04.765Z,46.11
2023-05-06T15:11:31.926Z,46.75
2023-05-06T15:13:58.436Z,44.49
2023-05-06T15:16:24.922Z,46.06
2023-05-06T15:18:51.343Z,46.87
2023-05-06T15:21:17.848Z,45.99
2023-05-06T15:23:46.558Z,45.58
2023-05-06T15:26:13.324Z,44.99
2023-05-06T15:28:39.787Z,45.18
2023-05-06T15:31:06.255Z,46.63
2023-05-06T15:33:32.688Z,49.21
2023-05-06T15:35:59.198Z,46.29
2023-05-06T15:38:25.621Z,45.96
2023-05-06T15:40:52.361Z,48.50
2023-05-06T15:43:23.702Z,49.66
2023-05-06T15:45:51.056Z,53.45
2023-05-06T15:48:17.520Z,55.34
2023-05-06T15:50:44.343Z,52.12
2023-05-06T15:53:11.373Z,49.43
2023-05-06T15:55:45.507Z,51.03
2023-05-06T15:58:19.219Z,51.40
2023-05-06T16:00:45.845Z,45.92
2023-05-06T16:03:12.713Z,49.24
2023-05-06T16:05:39.613Z,48.16
2023-05-06T16:08:06.268Z,48.44
2023-05-06T16:10:32.790Z,50.81
2023-05-06T16:12:59.470Z,49.93
2023-05-06T16:15:26.011Z,53.02
2023-05-06T16:17:52.522Z,50.55
2023-05-06T16:20:18.995Z,51.26
2023-05-06T16:22:54.486Z,54.38
2023-05-06T16:25:21.248Z,52.12
2023-05-06T16:27:48.584Z,51.51
2023-05-06T16:30:15.223Z,51.11
2023-05-06T16:32:41.692Z,54.35
2023-05-06T16:35:08.586Z,51.72
2023-05-06T16:37:35.877Z,52.34
2023-05-06T16:40:05.899Z,53.61
2023-05-06T16:42:32.406Z,53.93
2023-05-06T16:44:58.842Z,55.93
2023-05-06T16:47:25.469Z,55.93
2023-05-06T16:49:52.464Z,54.95
2023-05-06T16:52:19.605Z,55.45
2023-05-06T16:54:46.113Z,54.79
2023-05-06T16:57:12.686Z,57.81
2023-05-06T16:59:39.177Z,55.85
2023-05-06T17:02:05.681Z,55.72
2023-05-06T17:04:32.251Z,54.75
2023-05-06T17:06:58.685Z,55.49
2023-05-06T17:09:25.266Z,55.94
2023-05-06T17:11:51.967Z,56.41
2023-05-06T17:14:19.815Z,56.13
2023-05-06T17:16:47.226Z,57.18
2023-05-06T17:19:13.871Z,56.23
2023-05-06T17:21:40.765Z,59.85
2023-05-06T17:24:07.314Z,60.87
2023-05-06T17:26:35.077Z,62.06
2023-05-06T17:29:01.775Z,61.22
2023-05-06T17:31:28.479Z,61.69
2023-05-06T17:33:55.029Z,60.28
2023-05-06T17:36:21.852Z,61.08
2023-05-06T17:38:48.474Z,61.17
2023-05-06T17:41:15.488Z,62.36
2023-05-06T17:43:43.293Z,63.61
2023-05-06T17:46:09.790Z,63.66
2023-05-06T17:48:36.353Z,63.76
2023-05-06T17:51:03.104Z,62.41
2023-05-06T17:53:29.774Z,63.67
2023-05-06T17:55:56.395Z,63.92
2023-05-06T17:58:26.248Z,63.65
2023-05-06T18:00:52.868Z,65.27
2023-05-06T18:03:19.430Z,66.50
2023-05-06T18:05:46.208Z,68.13
2023-05-06T18:08:12.731Z,65.78
2023-05-06T18:10:40.600Z,71.77
2023-05-06T18:13:08.076Z,71.60
2023-05-06T18:15:34.676Z,71.09
2023-05-06T18:18:01.311Z,71.39
2023-05-06T18:20:28.341Z,76.86
2023-05-06T18:22:54.867Z,77.74
2023-05-06T18:25:21.683Z,71.10
2023-05-06T18:27:48.278Z,70.61
2023-05-06T18:30:15.929Z,70.57
2023-05-06T18:32:42.456Z,73.37
2023-05-06T18:35:10.872Z,72.74
2023-05-06T18:37:37.677Z,75.41
2023-05-06T18:40:05.814Z,75.15
2023-05-06T18:42:33.332Z,74.03
2023-05-06T18:45:01.415Z,77.56
2023-05-06T18:47:28.142Z,82.62
2023-05-06T18:49:54.729Z,84.76
2023-05-06T18:52:21.890Z,81.93
2023-05-06T18:54:48.344Z,78.19
2023-05-06T18:57:14.885Z,77.21
2023-05-06T18:59:41.634Z,77.71
2023-05-06T19:02:08.124Z,83.40
2023-05-06T19:04:34.709Z,85.65
2023-05-06T19:07:01.481Z,88.58
2023-05-06T19:09:28.115Z,88.03
2023-05-06T19:11:55.457Z,89.66
2023-05-06T19:14:23.662Z,91.49
2023-05-06T19:16:52.071Z,89.23
2023-05-06T19:19:18.590Z,87.59
2023-05-06T19:21:45.059Z,88.38
2023-05-06T19:24:11.526Z,89.25
2023-05-06T19:26:39.142Z,93.11
2023-05-06T19:29:05.729Z,90.12
2023-05-06T19:31:35.472Z,88.47
2023-05-06T19:34:01.998Z,85.24
2023-05-06T19:36:28.491Z,84.56
2023-05-06T19:38:54.983Z,83.52
2023-05-06T19:41:21.487Z,87.88
2023-05-06T19:43:47.965Z,90.22
2023-05-06T19:46:17.100Z,89.99
2023-05-06T19:48:45.313Z,90.72
2023-05-06T19:51:11.831Z,92.20
2023-05-06T19:53:38.508Z,93.33
2023-05-06T19:56:12.373Z,96.55
2023-05-06T19:58:39.498Z,97.48
2023-05-06T20:01:06.113Z,92.55
2023-05-06T20:03:33.328Z,96.08
2023-05-06T20:05:59.901Z,97.26
2023-05-06T20:08:26.846Z,98.58
2023-05-06T20:10:53.510Z,96.00
2023-05-06T20:13:20.357Z,92.75
2023-05-06T20:15:47.469Z,97.33
2023-05-06T20:18:14.453Z,97.95
2023-05-06T20:20:41.213Z,99.54
2023-05-06T20:23:07.682Z,98.79
2023-05-06T20:25:36.076Z,98.85
2023-05-06T20:28:03.552Z,98.62
2023-05-06T20:30:30.349Z,95.15
2023-05-06T20:32:56.901Z,98.35
2023-05-06T20:35:23.404Z,95.05
2023-05-06T20:37:49.860Z,99.14
2023-05-06T20:40:16.413Z,97.05
2023-05-06T20:42:42.869Z,96.82
2023-05-06T20:45:09.749Z,97.28
2023-05-06T20:47:36.651Z,97.97
2023-05-06T20:50:03.320Z,98.27
2023-05-06T20:52:29.815Z,97.71
2023-05-06T20:54:56.497Z,100.00
2023-05-06T20:57:23.278Z,100.00
2023-05-06T20:59:51.074Z,100.00
2023-05-06T21:02:17.655Z,99.86
2023-05-06T21:04:44.280Z,99.31
2023-05-06T21:07:10.769Z,100.00
2023-05-06T21:09:38.287Z,100.00
2023-05-06T21:12:04.991Z,100.00
2023-05-06T21:14:31.479Z,100.00
2023-05-06T21:16:57.931Z,100.00
2023-05-06T21:19:24.412Z,100.00
2023-05-06T21:21:51.351Z,100.00
2023-05-06T21:24:17.881Z,100.00
2023-05-06T21:26:44.332Z,100.00
2023-05-06T21:29:10.821Z,100.00
2023-05-06T21:31:37.526Z,100.00
2023-05-06T21:34:07.241Z,100.00
2023-05-06T21:36:35.467Z,100.00
2023-05-06T21:39:11.721Z,100.00
2023-05-06T21:41:38.579Z,100.00
2023-05-06T21:44:06.465Z,100.00
2023-05-06T21:46:33.406Z,100.00
2023-05-06T21:49:00.584Z,100.00
2023-05-06T21:51:28.540Z,100.00
2023-05-06T21:53:55.081Z,100.00
2023-05-06T21:56:22.175Z,100.00
2023-05-06T21:58:48.827Z,100.00
2023-05-06T22:01:15.708Z,100.00
2023-05-06T22:03:44.642Z,100.00
2023-05-06T22:06:12.424Z,100.00
2023-05-06T22:08:39.400Z,100.00
2023-05-06T22:11:06.001Z,100.00
2023-05-06T22:13:32.497Z,100.00
2023-05-06T22:15:59.071Z,100.00
2023-05-06T22:18:27.777Z,100.00
2023-05-06T22:20:56.693Z,100.00
2023-05-06T22:23:24.343Z,100.00
2023-05-06T22:25:52.186Z,100.00
2023-05-06T22:28:19.552Z,100.00
2023-05-06T22:30:46.063Z,100.00
2023-05-06T22:33:12.594Z,100.00
2023-05-06T22:35:39.092Z,100.00
2023-05-06T22:38:05.632Z,100.00
2023-05-06T22:40:32.112Z,100.00
2023-05-06T22:42:58.609Z,100.00
2023-05-06T22:45:25.051Z,100.00
2023-05-06T22:47:51.655Z,100.00
2023-05-06T22:50:18.260Z,100.00
2023-05-06T22:52:44.737Z,100.00
2023-05-06T22:55:11.475Z,100.00
2023-05-06T22:57:38.498Z,100.00
2023-05-06T23:00:06.907Z,100.00
2023-05-06T23:02:33.472Z,100.00
2023-05-06T23:05:00.836Z,100.00
2023-05-06T23:07:27.276Z,100.00
2023-05-06T23:09:53.741Z,100.00
2023-05-06T23:12:20.209Z,100.00
2023-05-06T23:14:46.679Z,100.00
2023-05-06T23:17:13.485Z,100.00
2023-05-06T23:19:40.024Z,100.00
2023-05-06T23:22:06.484Z,100.00
2023-05-06T23:24:32.970Z,100.00
2023-05-06T23:26:59.437Z,100.00
2023-05-06T23:29:25.861Z,100.00
2023-05-06T23:31:52.319Z,100.00
2023-05-06T23:34:18.804Z,100.00
2023-05-06T23:36:45.296Z,100.00
2023-05-06T23:39:12.209Z,100.00
2023-05-06T23:41:38.822Z,100.00
2023-05-06T23:44:06.216Z,100.00
2023-05-06T23:46:32.911Z,100.00
2023-05-06T23:48:59.439Z,100.00
2023-05-06T23:51:26.529Z,100.00
2023-05-06T23:53:53.130Z,100.00
2023-05-06T23:56:20.513Z,100.00
2023-05-06T23:58:46.995Z,100.00
